Time;durP1;ratioP1;P1;durP2;ratioP2;P2;SDS_P1;SDS_P2;PMS_P1;PMS_P2;Temp;Humidity;BMP_temperature;BMP_pressure;BME280_temperature;BME280_humidity;BME280_pressure;Samples;Min_cycle;Max_cycle;Signal;HPM_P1;HPM_P2
2021/09/18 04:54:10;;;;;;;15.90;8.32;;;;;;;23.45;100.00;100405.28;6270516;22;20023;-70
2021/09/18 04:56:56;;;;;;;17.20;9.07;;;;;;;23.42;100.00;100404.69;6308380;22;20413;-70
2021/09/18 04:59:42;;;;;;;14.30;8.40;;;;;;;22.84;100.00;100400.94;6309201;22;20003;-70
2021/09/18 05:02:28;;;;;;;16.23;8.52;;;;;;;22.98;100.00;100399.91;6310058;22;20010;-70
2021/09/18 05:05:13;;;;;;;16.58;8.85;;;;;;;22.98;100.00;100397.22;6310307;22;20302;-70
2021/09/18 05:07:59;;;;;;;18.05;9.10;;;;;;;22.95;100.00;100390.31;6287607;22;20011;-70
2021/09/18 05:10:45;;;;;;;70.05;11.43;;;;;;;23.11;100.00;100393.56;6310579;22;20014;-70
2021/09/18 05:13:31;;;;;;;17.27;9.05;;;;;;;23.09;100.00;100399.97;6309469;22;20078;-71
2021/09/18 05:16:25;;;;;;;20.75;9.35;;;;;;;23.19;100.00;100401.03;6308550;22;20007;-71
2021/09/18 05:19:15;;;;;;;14.85;9.20;;;;;;;23.23;100.00;100400.69;6285695;22;20402;-71
2021/09/18 05:22:05;;;;;;;17.05;9.43;;;;;;;23.42;100.00;100395.69;6285949;22;20011;-71
2021/09/18 05:24:51;;;;;;;13.38;8.43;;;;;;;23.31;100.00;100406.31;6286904;22;20014;-70
2021/09/18 05:27:37;;;;;;;17.88;9.50;;;;;;;23.93;100.00;100395.38;6307516;22;20007;-71
2021/09/18 05:30:23;;;;;;;16.65;9.23;;;;;;;23.61;100.00;100405.84;6286831;22;20018;-71
2021/09/18 05:33:09;;;;;;;25.23;9.07;;;;;;;23.77;100.00;100406.38;6309158;22;20011;-71
2021/09/18 05:35:54;;;;;;;15.80;9.13;;;;;;;23.54;100.00;100412.63;6310041;22;19999;-71
2021/09/18 05:38:40;;;;;;;16.92;8.98;;;;;;;23.28;100.00;100405.72;6308796;22;20467;-71
2021/09/18 05:41:26;;;;;;;19.05;8.63;;;;;;;23.68;100.00;100409.75;6308107;22;20385;-71
2021/09/18 06:07:39;;;;;;;13.68;8.90;;;;;;;24.63;100.00;100439.78;6258781;22;20019;31
2021/09/18 06:10:25;;;;;;;14.55;9.65;;;;;;;24.80;100.00;100450.00;6216794;23;20025;-71
2021/09/18 06:13:11;;;;;;;13.63;9.10;;;;;;;24.12;100.00;100442.03;6194929;23;20013;-71
2021/09/18 06:15:56;;;;;;;13.57;9.63;;;;;;;24.28;100.00;100447.03;6227044;23;20403;-70
2021/09/18 06:18:42;;;;;;;18.00;9.88;;;;;;;24.54;100.00;100444.00;6248063;23;20011;-70
2021/09/18 06:21:28;;;;;;;16.15;9.77;;;;;;;24.59;100.00;100443.66;6248390;23;20018;-70
2021/09/18 06:24:15;;;;;;;19.17;10.23;;;;;;;24.56;100.00;100447.44;6248262;23;20048;-70
2021/09/18 06:27:00;;;;;;;17.92;10.43;;;;;;;24.81;100.00;100441.00;6247794;23;20349;-70
2021/09/18 06:29:46;;;;;;;21.38;11.15;;;;;;;25.02;100.00;100439.25;6227353;23;20084;-71
2021/09/18 06:32:32;;;;;;;20.35;10.38;;;;;;;25.32;100.00;100431.41;6247738;23;20334;-71
2021/09/18 06:35:18;;;;;;;21.17;9.93;;;;;;;25.58;100.00;100439.00;6250372;22;20350;-70
2021/09/18 06:38:04;;;;;;;22.75;10.68;;;;;;;25.62;100.00;100444.97;6247761;23;20014;-71
2021/09/18 06:40:51;;;;;;;20.25;10.25;;;;;;;25.58;100.00;100452.41;6245574;23;20446;-70
2021/09/18 06:43:38;;;;;;;31.95;10.00;;;;;;;25.39;100.00;100454.91;6225770;23;20070;-71
2021/09/18 06:46:24;;;;;;;31.17;11.00;;;;;;;25.31;100.00;100457.38;6249494;22;20004;-71
2021/09/18 06:49:09;;;;;;;21.25;10.27;;;;;;;25.58;100.00;100459.59;6247747;23;20011;-70
2021/09/18 06:51:55;;;;;;;14.82;10.30;;;;;;;25.53;100.00;100449.28;6247813;23;20078;-71
2021/09/18 06:54:43;;;;;;;21.05;10.68;;;;;;;25.36;100.00;100457.84;6245525;23;20367;-71
2021/09/18 06:57:29;;;;;;;20.15;9.98;;;;;;;25.23;100.00;100453.63;6226854;23;20027;-72
2021/09/18 07:00:15;;;;;;;18.42;10.50;;;;;;;25.18;100.00;100458.47;6247645;23;20008;-71
2021/09/18 07:03:01;;;;;;;25.98;9.93;;;;;;;25.17;100.00;100460.31;6248509;22;20003;-71
2021/09/18 07:05:46;;;;;;;23.30;8.55;;;;;;;25.18;100.00;100456.66;6249596;22;20011;-70
2021/09/18 07:08:32;;;;;;;15.27;8.73;;;;;;;24.98;100.00;100461.91;6262630;22;20043;-70
2021/09/18 07:11:18;;;;;;;16.70;9.45;;;;;;;24.91;100.00;100450.84;6276899;22;20069;-71
2021/09/18 07:14:06;;;;;;;15.13;9.55;;;;;;;25.26;100.00;100464.06;6275463;22;20004;-71
2021/09/18 07:16:52;;;;;;;21.15;9.00;;;;;;;25.19;100.00;100463.72;6253932;22;20004;-70
2021/09/18 07:19:38;;;;;;;19.73;7.88;;;;;;;25.12;100.00;100469.72;6276467;22;20019;-71
2021/09/18 07:22:25;;;;;;;18.25;7.53;;;;;;;25.61;100.00;100478.16;6276646;22;20410;-71
2021/09/18 07:25:11;;;;;;;12.60;6.25;;;;;;;25.76;100.00;100468.81;6256844;22;20008;-71
2021/09/18 07:27:57;;;;;;;39.22;7.32;;;;;;;25.82;100.00;100479.03;6276673;22;20004;-71
2021/09/18 07:30:43;;;;;;;27.65;6.32;;;;;;;26.13;100.00;100481.72;6274244;22;20035;-71
2021/09/18 07:33:28;;;;;;;17.90;4.90;;;;;;;26.04;100.00;100473.59;6277075;22;20003;-71
2021/09/18 07:36:15;;;;;;;33.50;5.10;;;;;;;25.82;100.00;100481.72;6275574;22;20090;-71
2021/09/18 07:39:01;;;;;;;37.95;4.90;;;;;;;25.82;100.00;100476.34;6275922;22;20000;-71
2021/09/18 07:41:47;;;;;;;27.75;4.30;;;;;;;25.76;100.00;100469.66;6252529;22;20070;-71
2021/09/18 07:44:32;;;;;;;17.15;3.65;;;;;;;25.74;99.59;100468.94;6275293;22;20369;-71
2021/09/18 07:47:18;;;;;;;25.08;4.13;;;;;;;26.28;97.24;100466.97;6277449;22;20065;-70
2021/09/18 07:50:05;;;;;;;16.42;3.75;;;;;;;26.85;93.05;100463.75;6277309;22;20003;-70
2021/09/18 07:52:51;;;;;;;19.05;3.92;;;;;;;26.63;90.12;100467.47;6255908;22;20418;-71
2021/09/18 07:55:37;;;;;;;13.50;2.75;;;;;;;26.62;89.25;100467.59;6277284;22;20004;-70
2021/09/18 07:58:25;;;;;;;8.07;2.50;;;;;;;27.15;85.06;100469.94;6277012;22;20092;-70
2021/09/18 08:01:11;;;;;;;9.35;2.47;;;;;;;26.91;85.62;100466.75;6278036;22;20007;-70
2021/09/18 08:04:03;;;;;;;6.80;2.50;;;;;;;27.20;84.63;100472.22;6258048;22;20011;-70
2021/09/18 08:06:49;;;;;;;26.55;3.80;;;;;;;26.98;83.98;100462.53;6280052;22;20011;-70
2021/09/18 08:09:35;;;;;;;21.67;3.42;;;;;;;26.91;84.41;100466.75;6275947;22;20042;-70
2021/09/18 08:12:22;;;;;;;12.90;4.70;;;;;;;26.94;96.63;100463.78;6278964;22;20018;-70
2021/09/18 08:15:11;;;;;;;8.43;4.85;;;;;;;27.39;96.96;100464.19;6277932;22;20105;-70
2021/09/18 08:17:57;;;;;;;10.68;4.82;;;;;;;27.51;91.63;100470.34;6277564;22;20004;-71
2021/09/18 08:20:43;;;;;;;12.93;3.78;;;;;;;27.77;83.90;100466.94;6276503;22;20015;-70
2021/09/18 08:23:28;;;;;;;15.80;2.80;;;;;;;27.53;80.18;100464.63;6278679;22;20004;-70
2021/09/18 08:26:14;;;;;;;199.63;12.75;;;;;;;27.54;74.24;100462.81;6277861;22;20003;-71
2021/09/18 08:29:00;;;;;;;36.20;3.40;;;;;;;27.58;71.99;100456.97;6279800;22;20043;-71
2021/09/18 08:31:46;;;;;;;13.30;2.80;;;;;;;28.11;70.11;100465.50;6277962;22;20022;-71
2021/09/18 08:34:32;;;;;;;15.68;3.00;;;;;;;28.12;70.62;100459.13;6276385;22;20015;-72
2021/09/18 08:37:18;;;;;;;25.42;3.53;;;;;;;28.34;65.81;100448.03;6276694;22;20291;-72
2021/09/18 08:40:05;;;;;;;27.80;4.07;;;;;;;28.19;66.07;100451.31;6255185;22;20042;-72
2021/09/18 08:42:53;;;;;;;25.38;4.13;;;;;;;28.44;63.94;100450.75;6276767;22;20007;-71
2021/09/18 08:45:39;;;;;;;37.08;4.18;;;;;;;28.55;62.67;100459.50;6255431;22;20402;-71
2021/09/18 08:48:25;;;;;;;36.10;4.28;;;;;;;28.31;63.09;100469.88;6276499;22;20057;-70
2021/09/18 08:51:11;;;;;;;10.73;2.53;;;;;;;28.12;63.95;100469.91;6253459;22;20065;-71
2021/09/18 08:53:57;;;;;;;11.88;2.78;;;;;;;28.25;63.15;100456.97;6276393;22;20004;-72
2021/09/18 08:56:43;;;;;;;22.50;4.50;;;;;;;28.31;61.36;100463.63;6277590;22;20031;-72
2021/09/18 08:59:29;;;;;;;39.15;6.35;;;;;;;27.68;62.97;100465.06;6278727;22;20019;-72
2021/09/18 09:02:20;;;;;;;48.85;5.30;;;;;;;27.45;63.09;100467.19;6277530;22;20108;-72
2021/09/18 09:05:09;;;;;;;33.08;4.70;;;;;;;27.45;62.37;100459.09;6235722;22;20007;-72
2021/09/18 09:08:09;;;;;;;38.15;5.88;;;;;;;27.53;62.40;100467.34;6255598;22;20036;-72
2021/09/18 09:10:55;;;;;;;32.58;4.53;;;;;;;27.45;63.27;100455.59;6254780;22;20008;-72
2021/09/18 10:26:35;;;;;;;32.97;7.65;;;;;;;27.35;54.14;100452.00;6296894;22;20043;-72
2021/09/18 10:29:33;;;;;;;28.13;7.88;;;;;;;27.47;53.51;100456.28;6309778;22;20038;-72
2021/09/18 10:32:21;;;;;;;23.13;8.45;;;;;;;27.69;53.46;100455.16;6307815;22;20305;-72
2021/09/18 10:35:16;;;;;;;31.27;10.27;;;;;;;27.66;53.20;100460.81;6307077;22;20010;-71
2021/09/18 10:38:20;;;;;;;28.52;8.48;;;;;;;27.75;53.14;100459.97;6308411;22;20013;-71
2021/09/18 10:41:08;;;;;;;27.63;7.65;;;;;;;27.70;53.32;100471.19;6308656;22;20002;-71
2021/09/18 10:44:00;;;;;;;30.80;7.07;;;;;;;27.56;53.62;100474.28;6286846;22;20011;-71
2021/09/18 15:13:08;;;;;;;17.27;9.77;;;;;;;25.73;54.12;100475.31;6308804;22;20042;-72
2021/09/18 15:15:53;;;;;;;25.52;11.68;;;;;;;25.51;54.65;100483.41;6301633;22;20019;-70
2021/09/18 15:18:39;;;;;;;23.52;11.15;;;;;;;25.23;55.21;100475.91;6277356;22;20014;-71
2021/09/18 15:21:25;;;;;;;21.58;11.13;;;;;;;25.14;54.85;100481.16;6278361;22;20317;-71
2021/09/18 15:24:11;;;;;;;19.15;10.50;;;;;;;25.21;54.73;100477.00;6278165;22;20410;-70
2021/09/18 15:26:57;;;;;;;24.40;9.93;;;;;;;25.03;55.39;100481.19;6276961;22;20387;-71
2021/09/18 15:29:43;;;;;;;20.60;8.60;;;;;;;24.95;54.84;100479.09;6277558;22;20019;-72
2021/09/18 16:39:20;;;;;;;18.63;12.45;;;;;;;24.14;68.36;100524.91;6280003;22;20027;-69
2021/09/18 16:42:06;;;;;;;18.80;12.18;;;;;;;24.13;71.29;100523.19;6310021;22;20021;-71
2021/09/18 16:44:52;;;;;;;19.23;11.13;;;;;;;24.30;72.20;100525.44;6309435;22;20007;-71
2021/09/18 16:47:38;;;;;;;17.80;11.80;;;;;;;23.91;74.07;100533.78;6278485;22;20015;-71
2021/09/18 16:50:23;;;;;;;18.48;11.40;;;;;;;23.87;76.10;100533.13;6279294;22;20018;-71
2021/09/18 16:53:10;;;;;;;16.63;11.32;;;;;;;23.82;77.45;100537.16;6278854;22;20007;-72
2021/09/18 16:55:56;;;;;;;15.02;10.70;;;;;;;23.80;78.61;100544.44;6276703;22;20014;-71
2021/09/18 23:22:39;;;;;;;12.43;10.68;;;;;;;19.04;100.00;100748.94;6308947;22;20048;-71
2021/09/18 23:25:25;;;;;;;13.35;11.77;;;;;;;18.93;100.00;100743.34;6289638;22;20025;-71
2021/09/18 23:28:11;;;;;;;13.90;11.70;;;;;;;19.11;100.00;100755.66;6318967;22;20014;-71
2021/09/18 23:30:57;;;;;;;14.45;12.57;;;;;;;19.32;100.00;100748.41;6338207;22;20014;-70
2021/09/18 23:33:43;;;;;;;13.23;11.82;;;;;;;19.29;100.00;100737.94;6316148;22;20354;-71
2021/09/18 23:36:29;;;;;;;18.08;13.40;;;;;;;18.95;100.00;100752.06;6338536;22;20034;-71
2021/09/18 23:39:14;;;;;;;15.43;13.40;;;;;;;18.91;100.00;100753.16;6337216;22;20013;-71
